Time;durP1;ratioP1;P1;durP2;ratioP2;P2;SDS_P1;SDS_P2;PMS_P1;PMS_P2;Temp;Humidity;BMP_temperature;BMP_pressure;BME280_temperature;BME280_humidity;BME280_pressure;Samples;Min_cycle;Max_cycle;Signal;HPM_P1;HPM_P2
2022/09/09 00:01:36;;;;;;;5.60;2.20;;;16.90;99.90;;;;;;5074840;28;20174;-68
2022/09/09 00:04:20;;;;;;;3.05;2.10;;;16.80;99.90;;;;;;5074979;28;20252;-68
2022/09/09 00:07:13;;;;;;;5.25;2.30;;;16.70;99.90;;;;;;5086393;28;20188;-69
2022/09/09 00:09:49;;;;;;;3.45;1.92;;;16.70;99.90;;;;;;5096101;28;20170;-69
2022/09/09 00:12:22;;;;;;;3.00;2.10;;;16.60;99.90;;;;;;5096657;28;20302;-68
2022/09/09 00:14:51;;;;;;;3.55;2.08;;;16.60;99.90;;;;;;5096550;28;20606;-69
2022/09/09 00:17:25;;;;;;;2.58;1.70;;;16.60;99.90;;;;;;5094853;28;20232;-68
2022/09/09 00:20:13;;;;;;;3.30;2.00;;;16.50;99.90;;;;;;5094659;28;20302;-68
2022/09/09 00:22:45;;;;;;;3.10;2.10;;;16.50;99.90;;;;;;5096303;28;20161;-68
2022/09/09 00:25:16;;;;;;;4.25;1.88;;;16.40;99.90;;;;;;5094479;28;20193;-68
2022/09/09 00:27:49;;;;;;;2.70;2.10;;;16.50;99.90;;;;;;5085733;28;20202;-68
2022/09/09 00:30:22;;;;;;;2.47;1.90;;;16.40;99.90;;;;;;5076000;28;20166;-68
2022/09/09 00:32:53;;;;;;;2.05;1.83;;;16.40;99.90;;;;;;5074207;28;20213;-68
2022/09/09 00:35:29;;;;;;;3.30;2.00;;;16.30;99.90;;;;;;5075690;28;20510;-68
2022/09/09 00:38:01;;;;;;;3.55;1.98;;;16.20;99.90;;;;;;5055516;28;20194;-69
2022/09/09 00:40:33;;;;;;;5.10;2.30;;;16.10;99.90;;;;;;5055537;28;20202;-68
2022/09/09 00:43:20;;;;;;;4.65;1.90;;;16.10;99.90;;;;;;5055568;28;20168;-68
2022/09/09 00:45:52;;;;;;;2.80;2.17;;;16.00;99.90;;;;;;5054175;28;20210;-69
2022/09/09 00:48:19;;;;;;;5.70;2.20;;;16.00;99.90;;;;;;5055227;28;20194;-68
2022/09/09 00:50:58;;;;;;;3.53;1.83;;;16.00;99.90;;;;;;5055228;28;20170;-69
2022/09/09 00:53:39;;;;;;;2.97;1.98;;;16.00;99.90;;;;;;5055644;28;20224;-68
2022/09/09 00:56:12;;;;;;;5.80;2.00;;;16.00;99.90;;;;;;5055222;28;20161;-68
2022/09/09 00:58:38;;;;;;;3.88;2.15;;;15.90;99.90;;;;;;5071745;28;20205;-68
2022/09/09 01:01:11;;;;;;;4.65;2.20;;;15.90;99.90;;;;;;5075901;28;20536;-69
2022/09/09 01:04:05;;;;;;;3.80;2.33;;;15.90;99.90;;;;;;5074890;28;20173;-68
2022/09/09 01:06:34;;;;;;;3.70;2.58;;;15.90;99.90;;;;;;5084593;28;20315;-68
2022/09/09 01:09:07;;;;;;;3.13;2.35;;;15.90;99.90;;;;;;5094397;28;20201;-68
2022/09/09 01:11:42;;;;;;;5.95;2.53;;;15.90;99.90;;;;;;5095577;28;20184;-68
2022/09/09 01:14:27;;;;;;;4.30;2.45;;;15.90;99.90;;;;;;5094095;28;20276;-68
2022/09/09 01:16:59;;;;;;;8.75;2.63;;;15.90;99.90;;;;;;5095271;28;20176;-68
2022/09/09 01:19:40;;;;;;;6.40;2.33;;;15.90;99.90;;;;;;5093115;28;20591;-68
2022/09/09 01:22:09;;;;;;;4.38;2.67;;;15.90;99.90;;;;;;5095326;28;20218;-68
2022/09/09 01:24:39;;;;;;;5.38;2.42;;;15.90;99.90;;;;;;5095019;28;20761;-68
2022/09/09 01:27:07;;;;;;;2.58;2.00;;;15.90;99.90;;;;;;5091446;28;20209;-68
2022/09/09 01:29:33;;;;;;;3.30;2.15;;;15.90;99.90;;;;;;5074755;28;20166;-68
2022/09/09 01:32:37;;;;;;;4.72;2.50;;;15.90;99.90;;;;;;5074600;28;20178;-68
2022/09/09 01:35:04;;;;;;;4.18;2.45;;;15.90;99.90;;;;;;5071993;28;20216;-68
2022/09/09 01:37:29;;;;;;;3.47;2.40;;;15.90;99.90;;;;;;5090554;28;20213;-68
2022/09/09 01:39:55;;;;;;;5.30;2.53;;;15.90;99.90;;;;;;5095238;28;20203;-68
2022/09/09 01:42:21;;;;;;;5.20;2.53;;;15.90;99.90;;;;;;5094735;28;20173;-68
2022/09/09 01:44:47;;;;;;;4.18;2.40;;;15.90;99.90;;;;;;5094565;28;20583;-68
2022/09/09 01:47:14;;;;;;;3.67;2.20;;;15.90;99.90;;;;;;5094577;28;20189;-68
2022/09/09 01:49:40;;;;;;;2.92;2.00;;;15.90;99.90;;;;;;5094345;28;20169;-68
2022/09/09 01:52:06;;;;;;;2.40;2.20;;;15.90;99.90;;;;;;5093174;28;20260;-70
2022/09/09 01:54:33;;;;;;;4.97;2.17;;;15.90;99.90;;;;;;5093254;28;20581;-68
2022/09/09 01:57:24;;;;;;;4.72;2.20;;;15.90;99.90;;;;;;5090935;28;20198;-68
2022/09/09 02:00:09;;;;;;;3.65;2.28;;;15.90;99.90;;;;;;5074378;28;20159;-69
2022/09/09 02:02:37;;;;;;;3.92;2.40;;;16.00;99.90;;;;;;5072709;28;20185;-68
2022/09/09 02:05:14;;;;;;;5.93;2.38;;;16.00;99.90;;;;;;5073856;28;20708;-68
2022/09/09 02:07:42;;;;;;;3.15;1.95;;;16.00;99.90;;;;;;5093263;28;20228;-68
2022/09/09 02:10:17;;;;;;;5.35;2.30;;;16.00;99.90;;;;;;5093410;28;20264;-68
2022/09/09 02:12:49;;;;;;;5.25;2.42;;;16.00;99.90;;;;;;5093770;28;20175;-68
2022/09/09 02:15:53;;;;;;;4.90;2.33;;;15.90;99.90;;;;;;5094301;28;20157;-68
2022/09/09 02:18:28;;;;;;;4.30;2.03;;;15.90;99.90;;;;;;5094038;28;20200;-68
2022/09/09 02:20:56;;;;;;;4.28;2.30;;;16.00;99.90;;;;;;5093857;28;20236;-68
2022/09/09 02:23:22;;;;;;;3.78;2.33;;;15.90;99.90;;;;;;5094191;28;20648;-68
2022/09/09 02:25:51;;;;;;;3.72;2.35;;;15.90;99.90;;;;;;5092446;28;20201;-68
2022/09/09 02:28:21;;;;;;;5.88;2.45;;;15.90;99.90;;;;;;5079251;28;20599;-68
2022/09/09 02:30:53;;;;;;;3.85;2.22;;;15.80;99.90;;;;;;5073905;28;20166;-68
2022/09/09 02:33:20;;;;;;;2.30;2.10;;;15.80;99.90;;;;;;5055898;28;20240;-68
2022/09/09 02:35:46;;;;;;;2.63;2.15;;;15.80;99.90;;;;;;5059594;28;20184;-68
2022/09/09 02:38:14;;;;;;;4.05;2.10;;;15.90;99.90;;;;;;5094233;28;20197;-68
2022/09/09 02:40:40;;;;;;;4.47;2.20;;;15.90;99.90;;;;;;5093574;28;20221;-69
2022/09/09 02:43:06;;;;;;;3.40;2.30;;;15.90;99.90;;;;;;5093873;28;20262;-68
2022/09/09 02:46:18;;;;;;;6.35;2.40;;;15.90;99.90;;;;;;5094206;28;20208;-68
2022/09/09 02:48:58;;;;;;;3.75;1.90;;;15.90;99.90;;;;;;5069823;28;20208;-68
2022/09/09 02:51:35;;;;;;;5.68;2.20;;;15.90;99.90;;;;;;5094026;28;20682;-68
2022/09/09 02:54:30;;;;;;;6.32;2.45;;;15.90;99.90;;;;;;5094076;28;20167;-68
2022/09/09 02:57:24;;;;;;;5.00;2.53;;;15.90;99.90;;;;;;5088904;28;20264;-68
2022/09/09 02:59:52;;;;;;;2.20;2.03;;;16.00;99.90;;;;;;5073095;28;20189;-69
2022/09/09 03:02:18;;;;;;;5.35;2.28;;;16.00;99.90;;;;;;5073739;28;20216;-69
2022/09/09 03:04:44;;;;;;;6.47;2.25;;;16.00;99.90;;;;;;5073112;28;20197;-68
2022/09/09 03:07:11;;;;;;;2.97;2.30;;;15.90;99.90;;;;;;5088193;28;20259;-68
2022/09/09 03:09:36;;;;;;;3.45;2.08;;;15.90;99.90;;;;;;5092341;28;20170;-68
2022/09/09 03:12:04;;;;;;;6.70;2.15;;;15.90;99.90;;;;;;5093727;28;20185;-68
2022/09/09 03:14:30;;;;;;;5.22;2.40;;;15.80;99.90;;;;;;5093905;28;20249;-69
2022/09/09 03:16:57;;;;;;;5.43;2.30;;;15.80;99.90;;;;;;5094104;28;20169;-69
2022/09/09 03:19:23;;;;;;;6.25;2.10;;;15.70;99.90;;;;;;5092738;28;20173;-68
2022/09/09 03:21:49;;;;;;;3.25;2.30;;;15.70;99.90;;;;;;5094483;28;20513;-69
2022/09/09 03:24:15;;;;;;;3.47;2.22;;;15.70;99.90;;;;;;5093606;28;20239;-68
2022/09/09 03:26:44;;;;;;;5.93;2.90;;;15.70;99.90;;;;;;5093285;28;20234;-69
2022/09/09 03:29:12;;;;;;;4.22;2.33;;;15.60;99.90;;;;;;5073399;28;20170;-69
2022/09/09 03:31:38;;;;;;;2.58;2.17;;;15.60;99.90;;;;;;5073745;28;20182;-68
2022/09/09 03:34:05;;;;;;;2.67;2.20;;;15.70;99.90;;;;;;5072046;28;20182;-68
2022/09/09 03:36:31;;;;;;;6.00;2.58;;;15.70;99.90;;;;;;5082830;28;20176;-69
2022/09/09 03:38:57;;;;;;;3.50;2.10;;;15.70;99.90;;;;;;5093652;28;20548;-70
2022/09/09 03:41:24;;;;;;;5.53;2.50;;;15.70;99.90;;;;;;5091679;28;20192;-69
2022/09/09 03:43:56;;;;;;;4.57;2.33;;;15.70;99.90;;;;;;5096852;28;20161;-68
2022/09/09 03:46:26;;;;;;;2.90;2.15;;;15.70;99.90;;;;;;5096870;28;20247;-68
2022/09/09 03:48:54;;;;;;;4.05;2.30;;;15.70;99.90;;;;;;5096892;28;20676;-68
2022/09/09 03:51:21;;;;;;;5.38;2.15;;;15.70;99.90;;;;;;5095499;28;20177;-68
2022/09/09 03:53:47;;;;;;;6.63;2.80;;;15.70;99.90;;;;;;5096922;28;20252;-68
2022/09/09 03:56:13;;;;;;;8.30;2.72;;;15.60;99.90;;;;;;5096433;28;20169;-69
2022/09/09 03:58:39;;;;;;;5.45;2.72;;;15.70;99.90;;;;;;5079815;28;20662;-68
2022/09/09 04:01:13;;;;;;;4.03;2.30;;;15.60;99.90;;;;;;5076345;28;20176;-69
2022/09/09 04:03:39;;;;;;;4.55;2.30;;;15.60;99.90;;;;;;5074837;28;20181;-69
2022/09/09 04:06:07;;;;;;;5.32;2.70;;;15.60;99.90;;;;;;5081746;28;20197;-68
2022/09/09 04:08:33;;;;;;;5.95;2.67;;;15.60;99.90;;;;;;5096318;28;20185;-68
2022/09/09 04:11:02;;;;;;;5.50;2.75;;;15.60;99.90;;;;;;5096348;28;20170;-68
2022/09/09 04:13:28;;;;;;;7.97;2.33;;;15.60;99.90;;;;;;5097212;28;20631;-69
2022/09/09 04:15:56;;;;;;;8.45;2.63;;;15.60;99.90;;;;;;5097294;28;20180;-69
2022/09/09 04:18:23;;;;;;;4.97;2.53;;;15.60;99.90;;;;;;5097238;28;20189;-68
2022/09/09 04:20:50;;;;;;;6.03;2.50;;;15.60;99.90;;;;;;5096056;28;20251;-68
2022/09/09 04:23:20;;;;;;;3.00;2.35;;;15.60;99.90;;;;;;5096090;28;20199;-69
2022/09/09 04:25:51;;;;;;;6.53;2.58;;;15.60;99.90;;;;;;5094480;28;20748;-68
2022/09/09 04:28:19;;;;;;;7.00;2.42;;;15.60;99.90;;;;;;5081000;28;20210;-68
2022/09/09 04:30:45;;;;;;;4.20;2.60;;;15.60;99.90;;;;;;5074339;28;20170;-68
2022/09/09 04:33:12;;;;;;;3.58;2.30;;;15.60;99.90;;;;;;5075755;28;20186;-68
2022/09/09 04:35:38;;;;;;;8.60;2.50;;;15.60;99.90;;;;;;5076443;28;20181;-68
2022/09/09 04:38:07;;;;;;;5.03;2.92;;;15.60;99.90;;;;;;5095635;28;20200;-67
2022/09/09 04:40:33;;;;;;;4.43;2.35;;;15.60;99.90;;;;;;5096723;28;20189;-66
2022/09/09 04:43:01;;;;;;;4.18;2.50;;;15.60;99.90;;;;;;5095673;28;20205;-67
2022/09/09 04:45:27;;;;;;;6.50;2.97;;;15.60;99.90;;;;;;5095395;28;20202;-68
2022/09/09 04:47:53;;;;;;;9.35;2.85;;;15.70;99.90;;;;;;5095488;28;20227;-68
2022/09/09 04:50:19;;;;;;;6.30;2.78;;;15.70;99.90;;;;;;5095269;28;20214;-68
2022/09/09 04:52:45;;;;;;;10.10;2.75;;;15.70;99.90;;;;;;5095680;28;20264;-67
2022/09/09 04:55:12;;;;;;;6.53;2.60;;;15.70;99.90;;;;;;5094139;28;20204;-67
2022/09/09 04:57:39;;;;;;;6.45;2.83;;;15.70;99.90;;;;;;5086715;28;20202;-68
2022/09/09 05:00:05;;;;;;;10.75;2.67;;;15.70;99.90;;;;;;5073719;28;20174;-68
2022/09/09 05:02:32;;;;;;;6.50;2.78;;;15.70;99.90;;;;;;5074840;28;20181;-67
2022/09/09 05:04:58;;;;;;;6.88;2.75;;;15.60;99.90;;;;;;5074749;28;20193;-67
2022/09/09 05:07:26;;;;;;;4.78;2.70;;;15.60;99.90;;;;;;5091599;28;20661;-67
2022/09/09 05:09:51;;;;;;;2.45;2.17;;;15.70;99.90;;;;;;5095098;28;20169;-68
2022/09/09 05:12:17;;;;;;;4.30;2.33;;;15.70;99.90;;;;;;5094856;28;20594;-67
2022/09/09 05:14:43;;;;;;;5.63;2.78;;;15.70;99.90;;;;;;5095017;28;20685;-67
2022/09/09 05:17:10;;;;;;;7.15;2.40;;;15.70;99.90;;;;;;5093645;28;20201;-67
2022/09/09 05:19:36;;;;;;;5.57;2.70;;;15.80;99.90;;;;;;5093508;28;20551;-67
2022/09/09 05:22:02;;;;;;;5.32;2.70;;;15.80;99.90;;;;;;5093602;28;20181;-66
2022/09/09 05:24:28;;;;;;;4.38;2.30;;;15.80;99.90;;;;;;5093518;28;20181;-66
2022/09/09 05:26:53;;;;;;;5.95;2.67;;;15.80;99.90;;;;;;5092454;28;20173;-66
2022/09/09 05:29:19;;;;;;;8.63;3.08;;;15.80;99.90;;;;;;5074326;28;20173;-66
2022/09/09 05:31:46;;;;;;;6.00;2.88;;;15.80;99.90;;;;;;5073076;28;20658;-66
2022/09/09 05:34:12;;;;;;;5.53;2.55;;;15.80;99.90;;;;;;5074394;28;20170;-66
2022/09/09 05:36:39;;;;;;;6.47;2.72;;;15.80;99.90;;;;;;5084606;28;20177;-66
2022/09/09 05:39:04;;;;;;;4.80;2.65;;;15.80;99.90;;;;;;5094853;28;20197;-66
2022/09/09 05:41:31;;;;;;;3.05;2.55;;;15.90;99.90;;;;;;5094621;28;20191;-66
2022/09/09 05:43:58;;;;;;;4.97;2.30;;;15.90;99.90;;;;;;5094551;28;20173;-66
2022/09/09 05:46:24;;;;;;;4.60;2.72;;;15.90;99.90;;;;;;5094183;28;20203;-66
2022/09/09 05:48:53;;;;;;;5.38;2.33;;;15.90;99.90;;;;;;5094228;28;20234;-66
2022/09/09 05:51:21;;;;;;;4.47;2.67;;;15.90;99.90;;;;;;5093037;28;20261;-66
2022/09/09 05:53:48;;;;;;;9.55;3.05;;;15.90;99.90;;;;;;5094467;28;20200;-66
2022/09/09 05:56:21;;;;;;;7.88;3.00;;;15.90;99.90;;;;;;5094048;28;20169;-66
2022/09/09 05:58:49;;;;;;;6.60;2.80;;;15.90;99.90;;;;;;5075966;28;20252;-66
2022/09/09 06:01:20;;;;;;;4.32;2.40;;;15.90;99.90;;;;;;5072486;28;20268;-67
2022/09/09 06:03:49;;;;;;;6.43;2.60;;;15.90;99.90;;;;;;5072514;28;20174;-66
2022/09/09 06:06:17;;;;;;;2.65;2.33;;;16.00;99.90;;;;;;5079228;28;20711;-66
2022/09/09 06:08:44;;;;;;;5.57;2.80;;;16.00;99.90;;;;;;5092749;28;20225;-66
2022/09/09 06:11:20;;;;;;;6.18;2.92;;;16.00;99.90;;;;;;5092790;28;20177;-67
2022/09/09 06:13:47;;;;;;;4.15;2.45;;;16.00;99.90;;;;;;5094936;28;20161;-66
2022/09/09 06:16:15;;;;;;;6.05;2.70;;;16.10;99.90;;;;;;5094631;28;20552;-67
2022/09/09 06:18:42;;;;;;;3.85;2.60;;;16.20;99.90;;;;;;5095023;28;20197;-67
2022/09/09 06:21:15;;;;;;;6.18;2.60;;;16.20;99.90;;;;;;5093717;28;20177;-67
2022/09/09 06:23:40;;;;;;;7.78;2.53;;;16.20;99.90;;;;;;5094188;28;20159;-67
2022/09/09 06:26:12;;;;;;;5.57;2.58;;;16.30;99.90;;;;;;5093602;28;20200;-67
2022/09/09 06:28:37;;;;;;;6.22;2.63;;;16.30;99.90;;;;;;5077259;28;20569;-67
2022/09/09 06:31:09;;;;;;;5.43;2.60;;;16.30;99.90;;;;;;5073582;28;20170;-67
2022/09/09 06:33:41;;;;;;;4.25;2.53;;;16.30;99.90;;;;;;5073387;28;20219;-67
2022/09/09 06:36:14;;;;;;;9.43;2.50;;;16.40;99.90;;;;;;5079406;28;20204;-67
2022/09/09 06:38:42;;;;;;;5.93;2.33;;;16.40;99.90;;;;;;5093578;28;20195;-67
2022/09/09 06:41:09;;;;;;;3.92;2.63;;;16.30;99.90;;;;;;5093629;28;20653;-67
2022/09/09 06:43:35;;;;;;;6.15;2.60;;;16.40;99.90;;;;;;5093607;28;20206;-66
2022/09/09 06:46:21;;;;;;;6.07;2.70;;;16.30;99.90;;;;;;5092204;28;20561;-68
2022/09/09 06:48:47;;;;;;;4.53;2.45;;;16.30;99.90;;;;;;5092105;28;20513;-68
2022/09/09 06:51:22;;;;;;;8.40;2.30;;;16.30;99.90;;;;;;5092047;28;20223;-68
2022/09/09 06:53:52;;;;;;;4.40;2.47;;;16.40;99.90;;;;;;5092199;28;20528;-68
2022/09/09 06:56:22;;;;;;;3.72;2.33;;;16.40;99.90;;;;;;5091901;28;20199;-68
2022/09/09 06:58:49;;;;;;;5.15;3.00;;;16.40;99.90;;;;;;5075207;28;20229;-68
2022/09/09 07:01:19;;;;;;;6.50;2.80;;;16.40;99.90;;;;;;5073330;28;20196;-68
2022/09/09 07:03:50;;;;;;;3.83;2.38;;;16.40;99.90;;;;;;5073443;28;20166;-69
2022/09/09 07:06:24;;;;;;;7.78;2.70;;;16.40;99.90;;;;;;5079290;28;20583;-69
2022/09/09 07:09:03;;;;;;;4.80;2.30;;;16.40;99.90;;;;;;5092109;28;20262;-69
2022/09/09 07:11:32;;;;;;;3.92;2.40;;;16.40;99.90;;;;;;5093515;28;20181;-68
2022/09/09 07:13:59;;;;;;;2.95;2.10;;;16.40;99.90;;;;;;5093352;28;20170;-68
2022/09/09 07:16:27;;;;;;;4.35;2.22;;;16.40;99.90;;;;;;5093581;28;20261;-68
2022/09/09 07:18:56;;;;;;;4.07;2.40;;;16.40;99.90;;;;;;5096202;28;20286;-68
2022/09/09 07:21:24;;;;;;;4.78;2.25;;;16.30;99.90;;;;;;5096286;28;20181;-68
2022/09/09 07:23:50;;;;;;;4.18;2.60;;;16.30;99.90;;;;;;5097456;28;20617;-68
2022/09/09 07:26:21;;;;;;;5.18;2.30;;;16.30;99.90;;;;;;5095447;28;20205;-68
2022/09/09 07:28:48;;;;;;;7.30;2.33;;;16.30;99.90;;;;;;5077762;28;20201;-68
2022/09/09 07:31:18;;;;;;;3.42;2.13;;;16.30;99.90;;;;;;5077023;28;20174;-68
2022/09/09 07:33:44;;;;;;;4.78;2.10;;;16.30;99.90;;;;;;5075393;28;20169;-68
2022/09/09 07:36:30;;;;;;;3.22;2.35;;;16.40;99.90;;;;;;5082909;28;20653;-68
2022/09/09 07:39:02;;;;;;;3.40;2.30;;;16.40;99.90;;;;;;5097048;28;20603;-68
2022/09/09 07:41:32;;;;;;;8.00;2.65;;;16.40;99.90;;;;;;5095159;28;20196;-69
2022/09/09 07:43:58;;;;;;;3.38;2.40;;;16.50;99.90;;;;;;5095649;28;20169;-69
2022/09/09 07:46:25;;;;;;;3.25;2.65;;;16.50;99.90;;;;;;5095420;28;20284;-68
2022/09/09 07:48:56;;;;;;;4.55;2.45;;;16.50;99.90;;;;;;5096911;28;20189;-69
2022/09/09 07:51:27;;;;;;;6.72;2.78;;;16.50;99.90;;;;;;5096656;28;20240;-68
2022/09/09 07:53:57;;;;;;;8.45;2.70;;;16.50;99.90;;;;;;5096951;28;20158;-69
2022/09/09 07:56:24;;;;;;;7.07;2.45;;;16.50;99.90;;;;;;5095075;28;20214;-69
2022/09/09 07:58:51;;;;;;;5.53;2.55;;;16.50;99.90;;;;;;5078124;28;20217;-68
2022/09/09 08:01:29;;;;;;;4.93;2.53;;;16.60;99.90;;;;;;5075022;28;20204;-68
2022/09/09 08:04:10;;;;;;;7.47;2.75;;;16.60;99.90;;;;;;5075909;28;20178;-68
2022/09/09 08:06:39;;;;;;;8.05;2.70;;;16.70;99.90;;;;;;5084870;28;20223;-68
2022/09/09 08:09:06;;;;;;;3.75;2.50;;;16.80;99.90;;;;;;5096375;28;20189;-68
2022/09/09 08:11:33;;;;;;;5.68;2.95;;;16.80;99.90;;;;;;5094736;28;20208;-68
2022/09/09 08:13:59;;;;;;;5.22;2.58;;;16.80;99.90;;;;;;5096494;28;20149;-68
2022/09/09 08:16:29;;;;;;;8.57;2.50;;;16.80;99.90;;;;;;5096343;28;20185;-68
2022/09/09 08:18:56;;;;;;;6.97;2.47;;;16.80;99.90;;;;;;5096299;28;20711;-69
2022/09/09 08:21:24;;;;;;;7.75;2.47;;;16.80;99.90;;;;;;5095999;28;20230;-68
2022/09/09 08:23:53;;;;;;;7.60;2.60;;;16.80;99.90;;;;;;5095965;28;20177;-68
2022/09/09 08:26:24;;;;;;;4.57;2.95;;;16.80;99.90;;;;;;5095936;28;20207;-69
2022/09/09 08:28:51;;;;;;;5.40;2.40;;;16.90;99.90;;;;;;5077368;28;20201;-68
2022/09/09 08:31:29;;;;;;;6.85;2.60;;;16.90;99.90;;;;;;5075760;28;20614;-69
2022/09/09 08:33:56;;;;;;;9.82;2.90;;;16.90;99.90;;;;;;5076607;28;20164;-68
2022/09/09 08:36:25;;;;;;;9.50;2.85;;;17.00;99.90;;;;;;5083894;28;20204;-70
2022/09/09 08:38:56;;;;;;;11.13;2.58;;;17.00;99.90;;;;;;5096159;28;20196;-71
2022/09/09 08:41:53;;;;;;;6.13;2.53;;;17.10;99.90;;;;;;5094502;28;20650;-71
2022/09/09 08:44:34;;;;;;;4.90;2.38;;;17.30;99.90;;;;;;5095779;28;20177;-70
2022/09/09 08:47:14;;;;;;;6.18;2.25;;;17.60;99.90;;;;;;5095602;28;20169;-70
2022/09/09 08:50:14;;;;;;;7.57;2.80;;;17.80;99.90;;;;;;5095455;28;20179;-71
2022/09/09 08:53:01;;;;;;;6.45;2.80;;;17.80;99.90;;;;;;5095492;28;20207;-70
2022/09/09 08:55:45;;;;;;;6.80;2.28;;;17.80;99.90;;;;;;5095627;28;20219;-70
2022/09/09 08:58:20;;;;;;;5.53;2.60;;;17.80;99.90;;;;;;5080989;28;20209;-70
2022/09/09 09:01:13;;;;;;;6.18;2.50;;;17.80;99.90;;;;;;5075397;28;20641;-70
2022/09/09 09:04:07;;;;;;;4.68;2.45;;;17.80;99.90;;;;;;5074034;28;20190;-70
2022/09/09 09:06:51;;;;;;;3.90;2.53;;;17.90;99.90;;;;;;5073761;28;20194;-70
2022/09/09 09:09:21;;;;;;;6.50;2.53;;;18.10;99.90;;;;;;5074880;28;20162;-70
2022/09/09 09:11:54;;;;;;;7.45;2.70;;;18.30;99.90;;;;;;5073250;28;20184;-71
2022/09/09 09:14:23;;;;;;;5.20;2.45;;;18.40;99.90;;;;;;5073732;28;20165;-70
2022/09/09 09:16:52;;;;;;;4.65;2.38;;;18.50;99.90;;;;;;5073679;28;20205;-71
2022/09/09 09:19:18;;;;;;;10.40;2.40;;;18.60;99.90;;;;;;5073770;28;20168;-71
2022/09/09 09:22:07;;;;;;;6.22;2.70;;;18.80;99.90;;;;;;5074634;28;20260;-70
2022/09/09 09:24:58;;;;;;;3.63;2.20;;;18.80;99.90;;;;;;5075031;28;20178;-71
2022/09/09 09:27:35;;;;;;;8.75;2.35;;;18.80;99.90;;;;;;5068603;28;20198;-70
2022/09/09 09:30:22;;;;;;;3.33;2.30;;;18.90;99.90;;;;;;5055176;28;20157;-70
2022/09/09 09:33:05;;;;;;;6.15;2.30;;;19.10;99.90;;;;;;5053916;28;20199;-70
2022/09/09 09:35:31;;;;;;;5.60;2.20;;;19.50;99.90;;;;;;5057162;28;20162;-70
2022/09/09 09:38:00;;;;;;;7.63;2.85;;;19.60;99.90;;;;;;5094953;28;20197;-70
2022/09/09 09:40:26;;;;;;;6.65;2.33;;;19.80;99.90;;;;;;5094791;28;20674;-71
2022/09/09 09:42:59;;;;;;;6.63;2.60;;;20.10;99.90;;;;;;5095347;28;20165;-69
2022/09/09 09:45:44;;;;;;;6.80;2.55;;;20.20;99.90;;;;;;5095850;28;20197;-72
2022/09/09 09:48:12;;;;;;;5.93;2.25;;;20.30;99.90;;;;;;5094327;28;20234;-72
2022/09/09 09:50:52;;;;;;;5.88;2.05;;;20.30;99.90;;;;;;5094353;28;20161;-72
2022/09/09 09:53:26;;;;;;;5.30;2.28;;;20.40;99.90;;;;;;5094936;28;20150;-72
2022/09/09 09:56:09;;;;;;;5.05;2.17;;;20.50;99.90;;;;;;5094722;28;20624;-72
2022/09/09 09:58:44;;;;;;;7.82;2.45;;;20.70;99.90;;;;;;5076569;28;20210;-72
2022/09/09 10:01:39;;;;;;;5.60;2.03;;;20.90;99.90;;;;;;5072705;28;20180;-71
2022/09/09 10:04:23;;;;;;;8.38;2.50;;;21.00;99.90;;;;;;5073839;28;20578;-72
2022/09/09 10:06:50;;;;;;;8.32;2.40;;;21.00;99.90;;;;;;5085494;28;20246;-72
2022/09/09 10:09:34;;;;;;;8.85;3.05;;;20.70;99.90;;;;;;5094780;28;20518;-72
2022/09/09 10:12:00;;;;;;;7.32;2.28;;;20.40;99.90;;;;;;5092618;28;20717;-70
2022/09/09 10:14:39;;;;;;;10.07;2.63;;;20.20;99.90;;;;;;5094811;28;20252;-70
2022/09/09 10:17:30;;;;;;;7.20;2.15;;;20.10;99.90;;;;;;5093998;28;20193;-70
2022/09/09 10:20:13;;;;;;;5.53;2.20;;;20.00;99.90;;;;;;5093816;28;20188;-70
2022/09/09 10:22:45;;;;;;;5.20;2.35;;;19.80;99.90;;;;;;5094249;28;20505;-70
2022/09/09 10:25:48;;;;;;;4.32;1.90;;;19.80;99.90;;;;;;5094082;28;20196;-70
2022/09/09 10:28:37;;;;;;;8.30;2.30;;;19.80;99.90;;;;;;5095277;28;20201;-69
2022/09/09 10:31:19;;;;;;;9.30;2.13;;;19.90;99.90;;;;;;5094471;28;20515;-69
2022/09/09 10:33:57;;;;;;;4.93;2.30;;;20.00;99.90;;;;;;5054521;28;20163;-69
2022/09/09 10:36:26;;;;;;;5.13;2.05;;;20.10;99.90;;;;;;5069904;28;20184;-69
2022/09/09 10:39:05;;;;;;;6.03;2.35;;;20.10;99.90;;;;;;5092320;28;20200;-69
2022/09/09 10:41:52;;;;;;;4.07;2.10;;;20.10;99.90;;;;;;5092476;28;20196;-67
2022/09/09 10:44:24;;;;;;;4.93;2.05;;;20.00;99.90;;;;;;5092361;28;20169;-67
2022/09/09 10:47:17;;;;;;;4.55;1.92;;;20.10;99.90;;;;;;5093801;28;20671;-67
2022/09/09 10:50:19;;;;;;;3.72;1.83;;;20.30;99.90;;;;;;5092199;28;20181;-69
2022/09/09 10:53:41;;;;;;;8.07;2.55;;;20.40;99.90;;;;;;5095561;28;20516;-70
2022/09/09 10:56:10;;;;;;;6.93;1.90;;;20.40;99.90;;;;;;5096109;28;20177;-68
2022/09/09 10:58:46;;;;;;;5.57;2.78;;;20.20;99.90;;;;;;5062294;28;20232;-69
2022/09/09 11:01:30;;;;;;;3.38;2.03;;;19.90;99.90;;;;;;5056492;28;20225;-68
2022/09/09 11:04:32;;;;;;;3.80;1.90;;;19.80;99.90;;;;;;5058304;28;20168;-68
2022/09/09 11:07:04;;;;;;;5.10;2.00;;;19.70;99.90;;;;;;5058938;28;20281;-68
2022/09/09 11:09:38;;;;;;;7.45;2.28;;;19.50;99.90;;;;;;5058186;28;20237;-69
2022/09/09 11:12:05;;;;;;;4.13;1.90;;;19.60;99.90;;;;;;5057243;28;20612;-69
2022/09/09 11:14:44;;;;;;;4.47;2.35;;;19.80;99.90;;;;;;5057825;28;20265;-69
2022/09/09 11:17:18;;;;;;;7.78;2.22;;;19.90;99.90;;;;;;5055738;28;20198;-69
2022/09/09 11:19:44;;;;;;;4.40;2.25;;;19.80;99.90;;;;;;5057188;28;20154;-69
2022/09/09 11:22:33;;;;;;;4.25;2.20;;;19.80;99.90;;;;;;5055695;28;20612;-69
2022/09/09 11:25:14;;;;;;;5.50;2.25;;;19.70;99.90;;;;;;5057328;28;20190;-69
2022/09/09 11:27:58;;;;;;;4.82;2.08;;;19.90;99.90;;;;;;5065156;28;20737;-70
2022/09/09 11:30:40;;;;;;;6.45;1.85;;;20.30;99.90;;;;;;5077265;28;20192;-69
2022/09/09 11:33:05;;;;;;;6.53;2.03;;;20.80;99.90;;;;;;5076915;28;20617;-69
2022/09/09 11:35:38;;;;;;;2.80;1.60;;;21.20;99.90;;;;;;5077680;28;20235;-69
2022/09/09 11:38:24;;;;;;;5.45;2.05;;;21.50;99.90;;;;;;5097227;28;20598;-69
2022/09/09 11:41:03;;;;;;;6.32;2.38;;;21.60;99.90;;;;;;5097259;28;20207;-69
2022/09/09 11:43:40;;;;;;;4.20;1.90;;;21.30;99.90;;;;;;5096698;28;20157;-69
2022/09/09 11:46:07;;;;;;;5.38;1.80;;;21.10;99.90;;;;;;5095426;28;20754;-69
2022/09/09 11:48:45;;;;;;;6.20;1.98;;;21.20;99.90;;;;;;5095460;28;20564;-69
2022/09/09 11:51:28;;;;;;;4.45;1.58;;;21.40;99.90;;;;;;5096602;28;20160;-70
2022/09/09 11:53:58;;;;;;;4.22;1.70;;;21.70;99.90;;;;;;5095679;28;20240;-69
2022/09/09 11:56:33;;;;;;;6.68;2.15;;;21.80;99.90;;;;;;5096918;28;20177;-69
2022/09/09 11:59:06;;;;;;;3.75;2.40;;;21.50;99.90;;;;;;5075568;28;20292;-69
2022/09/09 12:01:34;;;;;;;4.28;1.73;;;21.40;99.90;;;;;;5075068;28;20655;-69
2022/09/09 12:04:17;;;;;;;4.22;1.77;;;21.70;99.90;;;;;;5075896;28;20204;-70
2022/09/09 12:06:53;;;;;;;4.53;1.58;;;22.00;99.90;;;;;;5087337;28;20291;-69
2022/09/09 12:09:34;;;;;;;7.32;1.88;;;22.60;99.90;;;;;;5098073;28;20210;-70
2022/09/09 12:12:11;;;;;;;3.85;1.77;;;22.70;99.90;;;;;;5096451;28;20173;-70
2022/09/09 12:14:58;;;;;;;6.10;1.70;;;23.00;99.90;;;;;;5096986;28;20679;-70
2022/09/09 12:17:26;;;;;;;2.88;1.65;;;22.90;99.90;;;;;;5096809;28;20215;-69
2022/09/09 12:20:13;;;;;;;4.57;1.70;;;22.40;99.90;;;;;;5096342;28;20179;-70
2022/09/09 12:23:12;;;;;;;4.68;1.98;;;21.90;99.90;;;;;;5096313;28;20725;-69
2022/09/09 12:26:03;;;;;;;3.00;1.70;;;21.80;99.90;;;;;;5095306;28;20213;-70
2022/09/09 12:28:50;;;;;;;6.38;1.70;;;21.80;99.90;;;;;;5079169;28;20621;-70
2022/09/09 12:31:35;;;;;;;6.82;1.85;;;21.90;99.90;;;;;;5075699;28;20184;-70
2022/09/09 12:34:29;;;;;;;5.30;1.70;;;21.50;99.90;;;;;;5075797;28;20237;-70
2022/09/09 12:37:04;;;;;;;2.80;1.73;;;21.40;99.90;;;;;;5086725;28;20196;-70
2022/09/09 12:39:38;;;;;;;3.67;1.88;;;21.00;99.90;;;;;;5095767;28;20160;-69
2022/09/09 12:42:04;;;;;;;3.90;2.05;;;20.90;99.90;;;;;;5095375;28;20164;-70
2022/09/09 12:44:32;;;;;;;3.60;1.80;;;20.80;99.90;;;;;;5095526;28;20541;-71
2022/09/09 12:47:02;;;;;;;6.60;1.88;;;20.70;99.90;;;;;;5095453;28;20196;-69
2022/09/09 12:49:34;;;;;;;6.05;1.83;;;20.60;99.90;;;;;;5095756;28;20158;-69
2022/09/09 12:52:07;;;;;;;4.25;1.67;;;20.50;99.90;;;;;;5094140;28;20165;-69
2022/09/09 12:54:36;;;;;;;4.97;1.92;;;20.40;99.90;;;;;;5095099;28;20215;-70
2022/09/09 12:57:03;;;;;;;2.00;1.70;;;20.10;99.90;;;;;;5093092;28;20192;-69
2022/09/09 13:00:04;;;;;;;5.75;1.60;;;20.00;99.90;;;;;;5075609;28;20193;-69
2022/09/09 13:02:31;;;;;;;4.68;1.83;;;20.10;99.90;;;;;;5073781;28;20192;-70
2022/09/09 13:05:16;;;;;;;1.20;1.20;;;20.90;99.90;;;;;;5075031;28;20201;-69
2022/09/09 13:07:43;;;;;;;3.58;1.70;;;21.70;99.90;;;;;;5095346;28;20204;-71
2022/09/09 13:10:12;;;;;;;3.13;1.38;;;22.00;99.90;;;;;;5095430;28;20248;-72
2022/09/09 13:12:38;;;;;;;4.25;1.60;;;21.70;99.90;;;;;;5093508;28;20268;-69
2022/09/09 13:15:22;;;;;;;3.47;1.45;;;21.40;99.90;;;;;;5094204;28;20173;-73
2022/09/09 13:18:00;;;;;;;4.75;1.65;;;21.20;99.90;;;;;;5095087;28;20238;-72